AirNav   Air Wisconsin Up To $57,000 Bonus
 
 432 users online  

02D Winona Lake Seaplane Base
Winona Lake, Indiana, USA

GOING TO WINONA LAKE?


FAA INFORMATION EFFECTIVE 22 APRIL 2021

Location

FAA Identifier: 02D
Lat/Long: 41-13-23.0000N 085-49-50.0000W
41-13.383333N 085-49.833333W
41.2230556,-85.8305556
(estimated)
Elevation: 812 ft. / 247 m (estimated)
From city: 1 mile W of WINONA LAKE, IN
Time zone: UTC -4 (UTC -5 during Standard Time)
Zip code: 46590

Seaplane Base Operations

Seaplane Base use: Open to the public
Activation date: 08/2007
Control tower: no
ARTCC: CHICAGO CENTER
FSS: TERRE HAUTE FLIGHT SERVICE STATION
NOTAMs facility: HUF (NOTAM-D service available)
Attendance: UNATNDD
Segmented circle: no

Seaplane Base Communications

CTAF: 122.9
WX AWOS-3 at ASW (3 nm N): 121.125 (574-269-7035)
WX ASOS at GSH (18 nm N): 121.45 (574-642-4231)
WX AWOS-3 at RCR (18 nm SW): 118.775 (574-223-3560)

Nearby radio navigation aids

VOR radial/distance  VOR name  Freq  Var
OLKr268/(15.1)WEBSTER LAKE VOR110.4003W
GSHr154/20.2GOSHEN VORTAC113.7000E
FWAr303/32.5FORT WAYNE VORTAC117.8006W
OXIr099/37.4KNOX VOR/DME115.6000E
GUSr025/37.6GRISSOM VORTAC108.4502W
GIJr146/39.4GIPPER VORTAC115.4000E

 
NDB name  Hdg/Dist  Freq  Var  ID
STURGIS211/39.638204WIRS .. .-. ...

Seaplane Base Services

Runway Information

Runway 13W/31W

Dimensions: 5000 x 1500 ft. / 1524 x 457 m
Surface: water
RUNWAY 13W  RUNWAY 31W
Traffic pattern: leftleft

Seaplane Base Ownership and Management from official FAA records

Ownership: Publicly-owned
Owner: INDIANA DEPT OF NATURAL RESOURCES
402 W. WASHINGTON ST.
INDIANAPOLIS, IN 46204
Phone (317) 232-0935
Manager: LT. KENTON TURNER
402 W. WASHINGTON ST.
INDIANAPOLIS, IN 46204
Phone (317) 232-0935
BOATING LAW ADMINISTRATOR.

Additional Remarks

SEAPLANE OPS PROHIBITED BTN SS-SR. EXPECT HEAVY BOAT TRAFFIC BETWEEN MEMORIAL DAY AND LABOR DAY. DO NOT BLOCK BOAT RAMPS, SEAPLANE DOCKING AREAS LIMITED.
FOR CD CTC CHICAGO ARTCC AT 630-906-8921.

Instrument Procedures

There are no published instrument procedures at 02D.

Some nearby airports with instrument procedures:

KASW - Warsaw Municipal Airport (3 nm N)
C03 - Nappanee Municipal Airport (14 nm N)
KGSH - Goshen Municipal Airport (18 nm N)
KRCR - Fulton County Airport (18 nm SW)
C65 - Plymouth Municipal Airport (23 nm W)
 
Loc | Ops | Rwys | IFR | FBO | Links
Com | Nav | Svcs | Stats | Notes
Aerial photo
No photo
 
Sectional chart

 
Airport distance calculator
Flying to Winona Lake Seaplane Base? Find the distance to fly.

From to 02D

Sunrise and sunset
Times for 15-May-2021
 Local
(UTC-4)
 Zulu
(UTC)
Morning civil twilight05:5409:54
Sunrise06:2610:26
Sunset20:5300:53
Evening civil twilight21:2501:25

Current date and time
Zulu (UTC)  15-May-2021 09:13:45
Local (UTC-4)  15-May-2021 05:13:45
 
METAR
KASW 
3nm N 
150855Z AUTO 00000KT 10SM CLR 06/03 A3025 RMK AO2
KRCR 
18nm SW 
150855Z AUTO 00000KT 10SM CLR 07/03 A3025 RMK AO2
KGSH 
19nm N 
150853Z AUTO 00000KT 10SM CLR 06/03 A3024 RMK AO2 SLP241 T00610028 56004
TAF
KFWA 
32nm SE 
150520Z 1506/1606 21003KT P6SM FEW250 FM151600 22008KT P6SM OVC080 FM160300 18003KT P6SM OVC040
KSBN 
36nm NW 
150520Z 1506/1606 17002KT P6SM SCT100 BKN250 FM151500 20010KT P6SM OVC080 FM160300 17005KT P6SM VCSH OVC040
KGUS 
38nm S 
142100Z 1421/1603 VRB06KT 9999 FEW090 QNH3019INS BECMG 1516/1517 20010G18KT 9999 FEW090 SCT130 BKN170 QNH3014INS BECMG 1523/1524 VRB06KT 9999 BKN065 OVC090 QNH3012INS TX21/1421Z TN07/1510Z LAST NO AMDS AFT 1503 NEXT 1513
NOTAMs
Click for the latest NOTAMs
NOTAMs are issued by the DoD/FAA and will open in a separate window not controlled by AirNav.

 

 
 

Would you like to see your business listed on this page?

 If your business provides an interesting product or service to pilots, flight crews, aircraft, or users of the Winona Lake Seaplane Base, you should consider listing it here.  To start the listing process, click on the button below
 
Add a business
 

Other Pages about Winona Lake Seaplane Base

Update a link
 
Copyright © AirNav, LLC. All rights reserved. Privacy Policy  Contact